sensor_id;sensor_type;location;lat;lon;timestamp;temperature;humidity
20829;DHT22;10575;50.124;8.582;2022-12-29T00:01:23;10.00;99.90
20829;DHT22;10575;50.124;8.582;2022-12-29T00:03:49;10.10;99.90
20829;DHT22;10575;50.124;8.582;2022-12-29T00:06:14;10.20;99.90
20829;DHT22;10575;50.124;8.582;2022-12-29T00:08:40;10.20;99.90
20829;DHT22;10575;50.124;8.582;2022-12-29T00:11:10;10.30;99.90
20829;DHT22;10575;50.124;8.582;2022-12-29T00:13:37;10.20;99.90
20829;DHT22;10575;50.124;8.582;2022-12-29T00:16:21;10.20;99.90
20829;DHT22;10575;50.124;8.582;2022-12-29T00:18:47;10.20;99.90
20829;DHT22;10575;50.124;8.582;2022-12-29T00:21:21;10.30;99.90
20829;DHT22;10575;50.124;8.582;2022-12-29T00:24:08;10.30;99.90
20829;DHT22;10575;50.124;8.582;2022-12-29T00:27:07;10.30;99.90
20829;DHT22;10575;50.124;8.582;2022-12-29T00:29:53;10.40;99.90
20829;DHT22;10575;50.124;8.582;2022-12-29T00:32:36;10.40;99.90
20829;DHT22;10575;50.124;8.582;2022-12-29T00:37:52;10.40;99.90
20829;DHT22;10575;50.124;8.582;2022-12-29T00:40:37;10.40;99.90
20829;DHT22;10575;50.124;8.582;2022-12-29T00:43:21;10.30;99.90
20829;DHT22;10575;50.124;8.582;2022-12-29T00:46:05;10.30;99.90
20829;DHT22;10575;50.124;8.582;2022-12-29T00:48:30;10.40;99.90
20829;DHT22;10575;50.124;8.582;2022-12-29T00:51:14;10.50;99.90
20829;DHT22;10575;50.124;8.582;2022-12-29T00:53:40;10.50;99.90
20829;DHT22;10575;50.124;8.582;2022-12-29T00:56:06;10.50;99.90
20829;DHT22;10575;50.124;8.582;2022-12-29T00:58:31;10.60;99.90
20829;DHT22;10575;50.124;8.582;2022-12-29T01:01:01;10.60;99.90
20829;DHT22;10575;50.124;8.582;2022-12-29T01:03:27;10.70;99.90
20829;DHT22;10575;50.124;8.582;2022-12-29T01:05:52;10.70;99.90
20829;DHT22;10575;50.124;8.582;2022-12-29T01:08:18;10.80;99.90
20829;DHT22;10575;50.124;8.582;2022-12-29T01:10:43;10.80;99.90
20829;DHT22;10575;50.124;8.582;2022-12-29T01:13:09;10.70;99.90
20829;DHT22;10575;50.124;8.582;2022-12-29T01:15:34;10.70;99.90
20829;DHT22;10575;50.124;8.582;2022-12-29T01:18:00;10.70;99.90
20829;DHT22;10575;50.124;8.582;2022-12-29T01:20:25;10.60;99.90
20829;DHT22;10575;50.124;8.582;2022-12-29T01:22:52;10.60;99.90
20829;DHT22;10575;50.124;8.582;2022-12-29T01:25:18;10.60;99.90
20829;DHT22;10575;50.124;8.582;2022-12-29T01:27:44;10.60;99.90
20829;DHT22;10575;50.124;8.582;2022-12-29T01:30:09;10.60;99.90
20829;DHT22;10575;50.124;8.582;2022-12-29T01:32:35;10.60;99.90
20829;DHT22;10575;50.124;8.582;2022-12-29T01:35:00;10.60;99.90
20829;DHT22;10575;50.124;8.582;2022-12-29T01:37:26;10.60;99.90
20829;DHT22;10575;50.124;8.582;2022-12-29T01:39:51;10.70;99.90
20829;DHT22;10575;50.124;8.582;2022-12-29T01:42:21;10.70;99.90
20829;DHT22;10575;50.124;8.582;2022-12-29T01:44:56;10.70;99.90
20829;DHT22;10575;50.124;8.582;2022-12-29T01:47:26;10.70;99.90
20829;DHT22;10575;50.124;8.582;2022-12-29T01:49:56;10.60;99.90
20829;DHT22;10575;50.124;8.582;2022-12-29T01:52:24;10.60;99.90
20829;DHT22;10575;50.124;8.582;2022-12-29T01:54:53;10.70;99.90
20829;DHT22;10575;50.124;8.582;2022-12-29T01:57:25;10.60;99.90
20829;DHT22;10575;50.124;8.582;2022-12-29T01:59:56;10.70;99.90
20829;DHT22;10575;50.124;8.582;2022-12-29T02:02:24;10.70;99.90
20829;DHT22;10575;50.124;8.582;2022-12-29T02:04:50;10.70;99.90
20829;DHT22;10575;50.124;8.582;2022-12-29T02:07:19;10.70;99.90
20829;DHT22;10575;50.124;8.582;2022-12-29T02:09:50;10.70;99.90
20829;DHT22;10575;50.124;8.582;2022-12-29T02:12:17;10.70;99.90
20829;DHT22;10575;50.124;8.582;2022-12-29T02:14:43;10.80;99.90
20829;DHT22;10575;50.124;8.582;2022-12-29T02:22:26;10.80;99.90
20829;DHT22;10575;50.124;8.582;2022-12-29T02:25:29;10.80;99.90
20829;DHT22;10575;50.124;8.582;2022-12-29T02:28:11;10.70;99.90
20829;DHT22;10575;50.124;8.582;2022-12-29T02:31:16;10.60;99.90
20829;DHT22;10575;50.124;8.582;2022-12-29T02:50:01;10.40;99.90
20829;DHT22;10575;50.124;8.582;2022-12-29T02:52:31;10.30;99.90
20829;DHT22;10575;50.124;8.582;2022-12-29T02:54:59;10.30;99.90
20829;DHT22;10575;50.124;8.582;2022-12-29T02:59:59;10.40;99.90
20829;DHT22;10575;50.124;8.582;2022-12-29T03:02:39;10.40;99.90
20829;DHT22;10575;50.124;8.582;2022-12-29T03:11:08;10.60;99.90
20829;DHT22;10575;50.124;8.582;2022-12-29T03:14:08;10.50;99.90
20829;DHT22;10575;50.124;8.582;2022-12-29T03:17:03;10.50;99.90
20829;DHT22;10575;50.124;8.582;2022-12-29T03:19:41;10.70;99.90
20829;DHT22;10575;50.124;8.582;2022-12-29T03:22:18;10.70;99.90
20829;DHT22;10575;50.124;8.582;2022-12-29T03:25:04;10.80;99.90
20829;DHT22;10575;50.124;8.582;2022-12-29T03:27:33;10.80;99.90
20829;DHT22;10575;50.124;8.582;2022-12-29T03:30:04;10.90;99.90
20829;DHT22;10575;50.124;8.582;2022-12-29T03:32:50;10.80;99.90
20829;DHT22;10575;50.124;8.582;2022-12-29T03:35:20;10.90;99.90
20829;DHT22;10575;50.124;8.582;2022-12-29T03:40:44;10.70;99.90
20829;DHT22;10575;50.124;8.582;2022-12-29T03:43:11;10.70;99.90
20829;DHT22;10575;50.124;8.582;2022-12-29T03:45:38;10.70;99.90
20829;DHT22;10575;50.124;8.582;2022-12-29T03:48:03;10.70;99.90
20829;DHT22;10575;50.124;8.582;2022-12-29T03:50:29;10.80;99.90
20829;DHT22;10575;50.124;8.582;2022-12-29T03:52:54;10.90;99.90
20829;DHT22;10575;50.124;8.582;2022-12-29T03:55:20;11.00;99.90
20829;DHT22;10575;50.124;8.582;2022-12-29T03:57:45;11.00;99.90
20829;DHT22;10575;50.124;8.582;2022-12-29T04:00:11;11.00;99.90
20829;DHT22;10575;50.124;8.582;2022-12-29T04:02:37;11.00;99.90
20829;DHT22;10575;50.124;8.582;2022-12-29T04:05:03;10.90;99.90
20829;DHT22;10575;50.124;8.582;2022-12-29T04:07:28;11.00;99.90
20829;DHT22;10575;50.124;8.582;2022-12-29T04:09:54;11.00;99.90
20829;DHT22;10575;50.124;8.582;2022-12-29T04:12:19;11.10;99.90
20829;DHT22;10575;50.124;8.582;2022-12-29T04:14:45;11.10;99.90
20829;DHT22;10575;50.124;8.582;2022-12-29T04:17:10;11.10;99.90
20829;DHT22;10575;50.124;8.582;2022-12-29T04:19:36;11.00;99.90
20829;DHT22;10575;50.124;8.582;2022-12-29T04:22:01;11.10;99.90
20829;DHT22;10575;50.124;8.582;2022-12-29T04:24:27;11.10;99.90
20829;DHT22;10575;50.124;8.582;2022-12-29T04:26:52;11.20;99.90
20829;DHT22;10575;50.124;8.582;2022-12-29T04:29:18;11.20;99.90
20829;DHT22;10575;50.124;8.582;2022-12-29T04:31:43;11.20;99.90
20829;DHT22;10575;50.124;8.582;2022-12-29T04:34:09;11.20;99.90
20829;DHT22;10575;50.124;8.582;2022-12-29T04:36:34;11.20;99.90
20829;DHT22;10575;50.124;8.582;2022-12-29T04:39:00;11.20;99.90
20829;DHT22;10575;50.124;8.582;2022-12-29T04:41:26;11.30;99.90
20829;DHT22;10575;50.124;8.582;2022-12-29T04:43:51;11.30;99.90
20829;DHT22;10575;50.124;8.582;2022-12-29T04:46:17;11.30;99.90
20829;DHT22;10575;50.124;8.582;2022-12-29T04:48:43;11.30;99.90
20829;DHT22;10575;50.124;8.582;2022-12-29T04:51:08;11.40;99.90
20829;DHT22;10575;50.124;8.582;2022-12-29T04:53:34;11.40;99.90
20829;DHT22;10575;50.124;8.582;2022-12-29T04:55:59;11.50;99.90
20829;DHT22;10575;50.124;8.582;2022-12-29T04:58:25;11.40;99.90
20829;DHT22;10575;50.124;8.582;2022-12-29T05:00:51;11.40;99.90
20829;DHT22;10575;50.124;8.582;2022-12-29T05:03:17;11.50;99.90
20829;DHT22;10575;50.124;8.582;2022-12-29T05:05:43;11.50;99.90
20829;DHT22;10575;50.124;8.582;2022-12-29T05:08:08;11.50;99.90
20829;DHT22;10575;50.124;8.582;2022-12-29T05:10:34;11.50;99.90
20829;DHT22;10575;50.124;8.582;2022-12-29T05:12:59;11.50;99.90
20829;DHT22;10575;50.124;8.582;2022-12-29T05:15:25;11.50;99.90
20829;DHT22;10575;50.124;8.582;2022-12-29T05:17:50;11.50;99.90
20829;DHT22;10575;50.124;8.582;2022-12-29T05:20:16;11.50;99.90
20829;DHT22;10575;50.124;8.582;2022-12-29T05:22:41;11.50;99.90
20829;DHT22;10575;50.124;8.582;2022-12-29T05:25:08;11.50;99.90
20829;DHT22;10575;50.124;8.582;2022-12-29T05:27:33;11.50;99.90
20829;DHT22;10575;50.124;8.582;2022-12-29T05:29:59;11.50;99.90
20829;DHT22;10575;50.124;8.582;2022-12-29T05:32:25;11.50;99.90
20829;DHT22;10575;50.124;8.582;2022-12-29T05:34:50;11.40;99.90
20829;DHT22;10575;50.124;8.582;2022-12-29T05:37:16;11.40;99.90
20829;DHT22;10575;50.124;8.582;2022-12-29T05:39:41;11.30;99.90
20829;DHT22;10575;50.124;8.582;2022-12-29T05:42:07;11.40;99.90
20829;DHT22;10575;50.124;8.582;2022-12-29T05:44:32;11.40;99.90
20829;DHT22;10575;50.124;8.582;2022-12-29T05:46:58;11.40;99.90
20829;DHT22;10575;50.124;8.582;2022-12-29T05:49:23;11.40;99.90
20829;DHT22;10575;50.124;8.582;2022-12-29T05:51:49;11.30;99.90
20829;DHT22;10575;50.124;8.582;2022-12-29T05:54:14;11.40;99.90
20829;DHT22;10575;50.124;8.582;2022-12-29T05:56:40;11.40;99.90
20829;DHT22;10575;50.124;8.582;2022-12-29T05:59:06;11.40;99.90
20829;DHT22;10575;50.124;8.582;2022-12-29T06:01:31;11.30;99.90
20829;DHT22;10575;50.124;8.582;2022-12-29T06:03:58;11.30;99.90
20829;DHT22;10575;50.124;8.582;2022-12-29T06:06:24;11.30;99.90
20829;DHT22;10575;50.124;8.582;2022-12-29T06:08:49;11.30;99.90
20829;DHT22;10575;50.124;8.582;2022-12-29T06:11:15;11.30;99.90
20829;DHT22;10575;50.124;8.582;2022-12-29T06:13:40;11.30;99.90
20829;DHT22;10575;50.124;8.582;2022-12-29T06:16:06;11.30;99.90
20829;DHT22;10575;50.124;8.582;2022-12-29T06:18:31;11.30;99.90
20829;DHT22;10575;50.124;8.582;2022-12-29T06:21:01;11.40;99.90
20829;DHT22;10575;50.124;8.582;2022-12-29T06:23:27;11.40;99.90
20829;DHT22;10575;50.124;8.582;2022-12-29T06:25:53;11.40;99.90
20829;DHT22;10575;50.124;8.582;2022-12-29T06:28:18;11.50;99.90
20829;DHT22;10575;50.124;8.582;2022-12-29T06:30:44;11.50;99.90
20829;DHT22;10575;50.124;8.582;2022-12-29T06:33:11;11.60;99.90
20829;DHT22;10575;50.124;8.582;2022-12-29T06:35:37;11.60;99.90
20829;DHT22;10575;50.124;8.582;2022-12-29T06:38:02;11.60;99.90
20829;DHT22;10575;50.124;8.582;2022-12-29T06:40:28;11.60;99.90
20829;DHT22;10575;50.124;8.582;2022-12-29T06:42:53;11.60;99.90
20829;DHT22;10575;50.124;8.582;2022-12-29T06:45:19;11.70;99.90
20829;DHT22;10575;50.124;8.582;2022-12-29T06:47:44;11.60;99.90
20829;DHT22;10575;50.124;8.582;2022-12-29T06:50:10;11.60;99.90
20829;DHT22;10575;50.124;8.582;2022-12-29T06:52:35;11.60;99.90
20829;DHT22;10575;50.124;8.582;2022-12-29T06:55:01;11.70;99.90
20829;DHT22;10575;50.124;8.582;2022-12-29T06:57:26;11.70;99.90
20829;DHT22;10575;50.124;8.582;2022-12-29T06:59:52;11.80;99.90
20829;DHT22;10575;50.124;8.582;2022-12-29T07:02:21;11.70;99.90
20829;DHT22;10575;50.124;8.582;2022-12-29T07:04:46;11.60;99.90
20829;DHT22;10575;50.124;8.582;2022-12-29T07:07:12;11.50;99.90
20829;DHT22;10575;50.124;8.582;2022-12-29T07:09:37;11.40;99.90
20829;DHT22;10575;50.124;8.582;2022-12-29T07:12:03;11.40;99.90
20829;DHT22;10575;50.124;8.582;2022-12-29T07:14:29;11.40;99.90
20829;DHT22;10575;50.124;8.582;2022-12-29T07:16:54;11.40;99.90
20829;DHT22;10575;50.124;8.582;2022-12-29T07:19:20;11.40;99.90
20829;DHT22;10575;50.124;8.582;2022-12-29T07:21:45;11.30;99.90
20829;DHT22;10575;50.124;8.582;2022-12-29T07:24:11;11.20;99.90
20829;DHT22;10575;50.124;8.582;2022-12-29T07:26:36;11.10;99.90
20829;DHT22;10575;50.124;8.582;2022-12-29T07:29:03;11.10;99.90
20829;DHT22;10575;50.124;8.582;2022-12-29T07:31:29;11.20;99.90
20829;DHT22;10575;50.124;8.582;2022-12-29T07:33:54;11.30;99.90
20829;DHT22;10575;50.124;8.582;2022-12-29T07:36:20;11.30;99.90
20829;DHT22;10575;50.124;8.582;2022-12-29T07:38:45;11.30;99.90
20829;DHT22;10575;50.124;8.582;2022-12-29T07:41:11;11.30;99.90
20829;DHT22;10575;50.124;8.582;2022-12-29T07:43:36;11.40;99.90
20829;DHT22;10575;50.124;8.582;2022-12-29T07:46:02;11.40;99.90
20829;DHT22;10575;50.124;8.582;2022-12-29T07:48:27;11.40;99.90
20829;DHT22;10575;50.124;8.582;2022-12-29T07:50:53;11.30;99.90
20829;DHT22;10575;50.124;8.582;2022-12-29T07:53:19;11.40;99.90
20829;DHT22;10575;50.124;8.582;2022-12-29T07:55:44;11.50;99.90
20829;DHT22;10575;50.124;8.582;2022-12-29T07:58:10;11.40;99.90
20829;DHT22;10575;50.124;8.582;2022-12-29T08:00:36;11.50;99.90
20829;DHT22;10575;50.124;8.582;2022-12-29T08:03:03;11.50;99.90
20829;DHT22;10575;50.124;8.582;2022-12-29T08:05:30;11.40;99.90
20829;DHT22;10575;50.124;8.582;2022-12-29T08:07:56;11.50;99.90
20829;DHT22;10575;50.124;8.582;2022-12-29T08:10:22;11.50;99.90
20829;DHT22;10575;50.124;8.582;2022-12-29T08:12:47;11.50;99.90
20829;DHT22;10575;50.124;8.582;2022-12-29T08:15:13;11.60;99.90
20829;DHT22;10575;50.124;8.582;2022-12-29T08:17:38;11.60;99.90
20829;DHT22;10575;50.124;8.582;2022-12-29T08:20:04;11.70;99.90
20829;DHT22;10575;50.124;8.582;2022-12-29T08:22:30;11.70;99.90
20829;DHT22;10575;50.124;8.582;2022-12-29T08:24:56;11.70;99.90
20829;DHT22;10575;50.124;8.582;2022-12-29T08:27:21;11.70;99.90
20829;DHT22;10575;50.124;8.582;2022-12-29T08:29:47;11.70;99.90
20829;DHT22;10575;50.124;8.582;2022-12-29T08:32:13;11.70;99.90
20829;DHT22;10575;50.124;8.582;2022-12-29T08:34:39;11.70;99.90
20829;DHT22;10575;50.124;8.582;2022-12-29T08:37:05;11.70;99.90
20829;DHT22;10575;50.124;8.582;2022-12-29T08:39:30;11.60;99.90
20829;DHT22;10575;50.124;8.582;2022-12-29T08:41:56;11.60;99.90
20829;DHT22;10575;50.124;8.582;2022-12-29T08:44:21;11.60;99.90
20829;DHT22;10575;50.124;8.582;2022-12-29T08:46:47;11.60;99.90
20829;DHT22;10575;50.124;8.582;2022-12-29T08:49:12;11.60;99.90
20829;DHT22;10575;50.124;8.582;2022-12-29T08:51:38;11.70;99.90
20829;DHT22;10575;50.124;8.582;2022-12-29T08:54:04;11.70;99.90
20829;DHT22;10575;50.124;8.582;2022-12-29T08:56:29;11.60;99.90
20829;DHT22;10575;50.124;8.582;2022-12-29T08:58:55;11.70;99.90
20829;DHT22;10575;50.124;8.582;2022-12-29T09:01:21;11.60;99.90
20829;DHT22;10575;50.124;8.582;2022-12-29T09:03:47;11.60;99.90
20829;DHT22;10575;50.124;8.582;2022-12-29T09:06:13;11.60;99.90
20829;DHT22;10575;50.124;8.582;2022-12-29T09:08:39;11.50;99.90
20829;DHT22;10575;50.124;8.582;2022-12-29T09:11:16;11.50;99.90
20829;DHT22;10575;50.124;8.582;2022-12-29T09:13:44;11.40;99.90
20829;DHT22;10575;50.124;8.582;2022-12-29T09:16:10;11.40;99.90
20829;DHT22;10575;50.124;8.582;2022-12-29T09:18:36;11.40;99.90
20829;DHT22;10575;50.124;8.582;2022-12-29T09:21:04;11.50;99.90
20829;DHT22;10575;50.124;8.582;2022-12-29T09:23:31;11.50;99.90
20829;DHT22;10575;50.124;8.582;2022-12-29T09:25:56;11.50;99.90
20829;DHT22;10575;50.124;8.582;2022-12-29T09:28:22;11.50;99.90
20829;DHT22;10575;50.124;8.582;2022-12-29T09:30:48;11.50;99.90
20829;DHT22;10575;50.124;8.582;2022-12-29T09:33:14;11.60;99.90
20829;DHT22;10575;50.124;8.582;2022-12-29T09:35:44;11.60;99.90
20829;DHT22;10575;50.124;8.582;2022-12-29T09:38:10;11.60;99.90
20829;DHT22;10575;50.124;8.582;2022-12-29T09:40:36;11.60;99.90
20829;DHT22;10575;50.124;8.582;2022-12-29T09:43:17;11.60;99.90
20829;DHT22;10575;50.124;8.582;2022-12-29T09:48:30;11.60;99.90
20829;DHT22;10575;50.124;8.582;2022-12-29T09:51:00;11.50;99.90
20829;DHT22;10575;50.124;8.582;2022-12-29T09:53:34;11.50;99.90
20829;DHT22;10575;50.124;8.582;2022-12-29T09:56:03;11.50;99.90
20829;DHT22;10575;50.124;8.582;2022-12-29T09:59:20;11.50;99.90
20829;DHT22;10575;50.124;8.582;2022-12-29T10:01:46;11.60;99.90
20829;DHT22;10575;50.124;8.582;2022-12-29T10:04:17;11.80;99.90
20829;DHT22;10575;50.124;8.582;2022-12-29T10:06:51;11.80;99.90
20829;DHT22;10575;50.124;8.582;2022-12-29T10:12:52;11.80;99.90
20829;DHT22;10575;50.124;8.582;2022-12-29T10:15:42;11.70;99.90
20829;DHT22;10575;50.124;8.582;2022-12-29T10:18:18;11.70;99.90
20829;DHT22;10575;50.124;8.582;2022-12-29T10:20:50;11.60;99.90
20829;DHT22;10575;50.124;8.582;2022-12-29T10:23:40;11.50;99.90
20829;DHT22;10575;50.124;8.582;2022-12-29T10:26:28;11.40;99.90
20829;DHT22;10575;50.124;8.582;2022-12-29T10:29:03;11.40;99.90
20829;DHT22;10575;50.124;8.582;2022-12-29T10:31:38;11.30;99.90
20829;DHT22;10575;50.124;8.582;2022-12-29T10:34:26;11.30;99.90
20829;DHT22;10575;50.124;8.582;2022-12-29T10:37:02;11.30;99.90
20829;DHT22;10575;50.124;8.582;2022-12-29T10:39:33;11.30;99.90
20829;DHT22;10575;50.124;8.582;2022-12-29T10:42:21;11.30;99.90
20829;DHT22;10575;50.124;8.582;2022-12-29T10:44:50;11.30;99.90
20829;DHT22;10575;50.124;8.582;2022-12-29T10:47:21;11.40;99.90
20829;DHT22;10575;50.124;8.582;2022-12-29T10:49:48;11.50;99.90
20829;DHT22;10575;50.124;8.582;2022-12-29T10:52:16;11.60;99.90
20829;DHT22;10575;50.124;8.582;2022-12-29T10:55:05;11.60;99.90
20829;DHT22;10575;50.124;8.582;2022-12-29T10:57:36;11.70;99.90
20829;DHT22;10575;50.124;8.582;2022-12-29T11:00:11;11.70;99.90
20829;DHT22;10575;50.124;8.582;2022-12-29T11:05:51;12.00;99.90
20829;DHT22;10575;50.124;8.582;2022-12-29T11:08:21;12.00;99.90
20829;DHT22;10575;50.124;8.582;2022-12-29T11:11:04;12.10;99.90
20829;DHT22;10575;50.124;8.582;2022-12-29T11:13:33;12.20;99.90
20829;DHT22;10575;50.124;8.582;2022-12-29T11:15:59;12.20;99.90
20829;DHT22;10575;50.124;8.582;2022-12-29T11:18:34;12.20;99.90
20829;DHT22;10575;50.124;8.582;2022-12-29T11:21:04;12.40;99.90
20829;DHT22;10575;50.124;8.582;2022-12-29T11:23:40;12.40;99.90
20829;DHT22;10575;50.124;8.582;2022-12-29T11:28:31;12.80;99.90
20829;DHT22;10575;50.124;8.582;2022-12-29T11:31:02;12.90;99.90
20829;DHT22;10575;50.124;8.582;2022-12-29T11:33:29;12.80;99.90
20829;DHT22;10575;50.124;8.582;2022-12-29T11:36:09;12.80;99.90
20829;DHT22;10575;50.124;8.582;2022-12-29T11:38:40;12.80;99.90
20829;DHT22;10575;50.124;8.582;2022-12-29T11:41:09;12.90;99.90
20829;DHT22;10575;50.124;8.582;2022-12-29T11:43:41;12.80;99.90
20829;DHT22;10575;50.124;8.582;2022-12-29T11:46:15;12.90;99.90
20829;DHT22;10575;50.124;8.582;2022-12-29T11:48:42;12.90;99.90
20829;DHT22;10575;50.124;8.582;2022-12-29T11:51:08;12.80;99.90
20829;DHT22;10575;50.124;8.582;2022-12-29T11:53:39;12.80;99.90
20829;DHT22;10575;50.124;8.582;2022-12-29T11:56:16;12.80;99.90
20829;DHT22;10575;50.124;8.582;2022-12-29T11:58:42;12.80;99.90
20829;DHT22;10575;50.124;8.582;2022-12-29T12:01:25;12.70;99.90
20829;DHT22;10575;50.124;8.582;2022-12-29T12:06:33;12.80;99.90
20829;DHT22;10575;50.124;8.582;2022-12-29T12:09:08;12.80;99.90
20829;DHT22;10575;50.124;8.582;2022-12-29T12:11:39;12.90;99.90
20829;DHT22;10575;50.124;8.582;2022-12-29T12:14:19;12.80;99.90
20829;DHT22;10575;50.124;8.582;2022-12-29T12:17:09;12.80;99.90
20829;DHT22;10575;50.124;8.582;2022-12-29T12:22:27;12.90;99.90
20829;DHT22;10575;50.124;8.582;2022-12-29T12:25:03;13.00;99.90
20829;DHT22;10575;50.124;8.582;2022-12-29T12:28:02;13.10;99.90
20829;DHT22;10575;50.124;8.582;2022-12-29T12:30:37;13.10;99.90
20829;DHT22;10575;50.124;8.582;2022-12-29T12:33:27;13.10;99.90
20829;DHT22;10575;50.124;8.582;2022-12-29T12:36:18;13.20;99.90
20829;DHT22;10575;50.124;8.582;2022-12-29T12:44:34;12.90;99.90
20829;DHT22;10575;50.124;8.582;2022-12-29T12:58:43;12.50;99.90
20829;DHT22;10575;50.124;8.582;2022-12-29T13:04:23;12.30;99.90
20829;DHT22;10575;50.124;8.582;2022-12-29T13:10:05;12.20;99.90
20829;DHT22;10575;50.124;8.582;2022-12-29T13:12:48;12.20;99.90
20829;DHT22;10575;50.124;8.582;2022-12-29T13:15:45;12.10;99.90
20829;DHT22;10575;50.124;8.582;2022-12-29T13:21:11;12.20;99.90
20829;DHT22;10575;50.124;8.582;2022-12-29T13:24:01;12.10;99.90
20829;DHT22;10575;50.124;8.582;2022-12-29T13:26:48;12.20;99.90
20829;DHT22;10575;50.124;8.582;2022-12-29T13:29:31;12.30;99.90
20829;DHT22;10575;50.124;8.582;2022-12-29T13:34:59;12.40;99.90
20829;DHT22;10575;50.124;8.582;2022-12-29T13:37:31;12.50;99.90
20829;DHT22;10575;50.124;8.582;2022-12-29T13:40:02;12.60;99.90
20829;DHT22;10575;50.124;8.582;2022-12-29T13:42:29;12.50;99.90
20829;DHT22;10575;50.124;8.582;2022-12-29T13:45:01;12.50;99.90
20829;DHT22;10575;50.124;8.582;2022-12-29T13:47:36;12.50;99.90
20829;DHT22;10575;50.124;8.582;2022-12-29T13:50:04;12.40;99.90
20829;DHT22;10575;50.124;8.582;2022-12-29T13:52:39;12.40;99.90
20829;DHT22;10575;50.124;8.582;2022-12-29T13:58:29;12.40;99.90
20829;DHT22;10575;50.124;8.582;2022-12-29T14:03:50;12.50;99.90
20829;DHT22;10575;50.124;8.582;2022-12-29T14:06:31;12.50;99.90
20829;DHT22;10575;50.124;8.582;2022-12-29T14:09:02;12.40;99.90
20829;DHT22;10575;50.124;8.582;2022-12-29T14:11:38;12.40;99.90
20829;DHT22;10575;50.124;8.582;2022-12-29T14:14:21;12.30;99.90
20829;DHT22;10575;50.124;8.582;2022-12-29T14:16:47;12.30;99.90
20829;DHT22;10575;50.124;8.582;2022-12-29T14:19:17;12.20;99.90
20829;DHT22;10575;50.124;8.582;2022-12-29T14:21:58;12.20;99.90
20829;DHT22;10575;50.124;8.582;2022-12-29T14:32:35;11.90;99.90
20829;DHT22;10575;50.124;8.582;2022-12-29T14:35:37;11.80;99.90
20829;DHT22;10575;50.124;8.582;2022-12-29T14:38:13;11.70;99.90
20829;DHT22;10575;50.124;8.582;2022-12-29T14:40:40;11.70;99.90
20829;DHT22;10575;50.124;8.582;2022-12-29T14:43:12;11.80;99.90
20829;DHT22;10575;50.124;8.582;2022-12-29T14:45:41;11.70;99.90
20829;DHT22;10575;50.124;8.582;2022-12-29T14:48:30;11.80;99.90
20829;DHT22;10575;50.124;8.582;2022-12-29T14:50:57;11.70;99.90
20829;DHT22;10575;50.124;8.582;2022-12-29T14:53:46;11.70;99.90
20829;DHT22;10575;50.124;8.582;2022-12-29T14:56:15;11.80;99.90
20829;DHT22;10575;50.124;8.582;2022-12-29T15:04:00;11.70;99.90
20829;DHT22;10575;50.124;8.582;2022-12-29T15:06:33;11.70;99.90
20829;DHT22;10575;50.124;8.582;2022-12-29T15:09:10;11.70;99.90
20829;DHT22;10575;50.124;8.582;2022-12-29T15:16:56;11.50;99.90
20829;DHT22;10575;50.124;8.582;2022-12-29T15:19:23;11.30;99.90
20829;DHT22;10575;50.124;8.582;2022-12-29T15:21:49;11.20;99.90
20829;DHT22;10575;50.124;8.582;2022-12-29T15:24:15;11.10;99.90
20829;DHT22;10575;50.124;8.582;2022-12-29T15:26:49;11.00;99.90
20829;DHT22;10575;50.124;8.582;2022-12-29T15:32:00;10.80;99.90
20829;DHT22;10575;50.124;8.582;2022-12-29T15:34:29;10.80;99.90
20829;DHT22;10575;50.124;8.582;2022-12-29T15:36:55;10.80;99.90
20829;DHT22;10575;50.124;8.582;2022-12-29T15:39:29;10.80;99.90
20829;DHT22;10575;50.124;8.582;2022-12-29T15:42:30;10.80;99.90
20829;DHT22;10575;50.124;8.582;2022-12-29T15:44:58;10.70;99.90
20829;DHT22;10575;50.124;8.582;2022-12-29T15:47:26;10.60;99.90
20829;DHT22;10575;50.124;8.582;2022-12-29T15:50:04;10.60;99.90
20829;DHT22;10575;50.124;8.582;2022-12-29T15:52:32;10.60;99.90
20829;DHT22;10575;50.124;8.582;2022-12-29T15:54:58;10.50;99.90
20829;DHT22;10575;50.124;8.582;2022-12-29T15:57:31;10.50;99.90
20829;DHT22;10575;50.124;8.582;2022-12-29T16:00:01;10.50;99.90
20829;DHT22;10575;50.124;8.582;2022-12-29T16:02:27;10.50;99.90
20829;DHT22;10575;50.124;8.582;2022-12-29T16:04:53;10.60;99.90
20829;DHT22;10575;50.124;8.582;2022-12-29T16:07:25;10.50;99.90
20829;DHT22;10575;50.124;8.582;2022-12-29T16:09:59;10.50;99.90
20829;DHT22;10575;50.124;8.582;2022-12-29T16:12:35;10.50;99.90
20829;DHT22;10575;50.124;8.582;2022-12-29T16:15:06;10.50;99.90
20829;DHT22;10575;50.124;8.582;2022-12-29T16:17:37;10.50;99.90
20829;DHT22;10575;50.124;8.582;2022-12-29T16:20:21;10.50;99.90
20829;DHT22;10575;50.124;8.582;2022-12-29T16:22:53;10.60;99.90
20829;DHT22;10575;50.124;8.582;2022-12-29T16:25:23;10.50;99.90
20829;DHT22;10575;50.124;8.582;2022-12-29T16:27:49;10.50;99.90
20829;DHT22;10575;50.124;8.582;2022-12-29T16:30:27;10.60;99.90
20829;DHT22;10575;50.124;8.582;2022-12-29T16:32:55;10.50;99.90
20829;DHT22;10575;50.124;8.582;2022-12-29T16:35:29;10.50;99.90
20829;DHT22;10575;50.124;8.582;2022-12-29T16:38:20;10.40;99.90
20829;DHT22;10575;50.124;8.582;2022-12-29T16:43:27;10.20;99.90
20829;DHT22;10575;50.124;8.582;2022-12-29T16:51:34;10.00;99.90
20829;DHT22;10575;50.124;8.582;2022-12-29T16:53:53;10.00;99.90
20829;DHT22;10575;50.124;8.582;2022-12-29T16:56:26;10.00;99.90
20829;DHT22;10575;50.124;8.582;2022-12-29T16:59:25;10.10;99.90
20829;DHT22;10575;50.124;8.582;2022-12-29T17:01:46;10.10;99.90
20829;DHT22;10575;50.124;8.582;2022-12-29T17:04:13;10.10;99.90
20829;DHT22;10575;50.124;8.582;2022-12-29T17:06:39;10.10;99.90
20829;DHT22;10575;50.124;8.582;2022-12-29T17:09:21;10.00;99.90
20829;DHT22;10575;50.124;8.582;2022-12-29T17:11:58;10.00;99.90
20829;DHT22;10575;50.124;8.582;2022-12-29T17:14:48;9.90;99.90
20829;DHT22;10575;50.124;8.582;2022-12-29T17:20:17;10.00;99.90
20829;DHT22;10575;50.124;8.582;2022-12-29T17:22:44;10.00;99.90
20829;DHT22;10575;50.124;8.582;2022-12-29T17:25:14;10.00;99.90
20829;DHT22;10575;50.124;8.582;2022-12-29T17:27:44;10.10;99.90
20829;DHT22;10575;50.124;8.582;2022-12-29T17:30:15;10.10;99.90
20829;DHT22;10575;50.124;8.582;2022-12-29T17:32:43;10.00;99.90
20829;DHT22;10575;50.124;8.582;2022-12-29T17:35:15;9.90;99.90
20829;DHT22;10575;50.124;8.582;2022-12-29T17:37:40;9.90;99.90
20829;DHT22;10575;50.124;8.582;2022-12-29T17:40:10;9.90;99.90
20829;DHT22;10575;50.124;8.582;2022-12-29T17:42:43;10.00;99.90
20829;DHT22;10575;50.124;8.582;2022-12-29T17:45:14;10.00;99.90
20829;DHT22;10575;50.124;8.582;2022-12-29T17:47:41;9.90;99.90
20829;DHT22;10575;50.124;8.582;2022-12-29T17:50:11;10.00;99.90
20829;DHT22;10575;50.124;8.582;2022-12-29T17:52:37;10.10;99.90